Time;durP1;ratioP1;P1;durP2;ratioP2;P2;SDS_P1;SDS_P2;PMS_P1;PMS_P2;Temp;Humidity;BMP_temperature;BMP_pressure;BME280_temperature;BME280_humidity;BME280_pressure;Samples;Min_cycle;Max_cycle;Signal;HPM_P1;HPM_P2
2021/04/05 00:01:35;;;;;;;0.30;0.30;;;;;;;4.13;59.53;96441.97;5115176;28;20180;-60
2021/04/05 00:04:02;;;;;;;0.20;0.20;;;;;;;4.11;59.69;96435.97;5115653;28;20059;-60
2021/04/05 00:06:28;;;;;;;0.40;0.40;;;;;;;4.12;59.67;96440.34;5115657;28;20028;-59
2021/04/05 00:08:53;;;;;;;0.22;0.22;;;;;;;4.15;59.57;96442.56;5115033;28;20081;-59
2021/04/05 00:11:20;;;;;;;1.38;1.27;;;;;;;4.20;59.47;96428.22;5114929;28;20401;-60
2021/04/05 00:13:47;;;;;;;0.28;0.28;;;;;;;4.21;59.44;96438.00;5115059;28;20119;-60
2021/04/05 00:16:17;;;;;;;0.20;0.20;;;;;;;4.19;59.56;96440.94;5114886;28;20098;-58
2021/04/05 00:18:43;;;;;;;0.30;0.30;;;;;;;4.14;59.71;96431.94;5079239;28;20046;-60
2021/04/05 00:21:15;;;;;;;0.30;0.30;;;;;;;4.08;60.02;96430.22;5114760;28;20464;-61
2021/04/05 00:23:41;;;;;;;1.08;0.60;;;;;;;4.05;60.10;96431.56;5114923;28;20517;-60
2021/04/05 00:26:07;;;;;;;0.20;0.20;;;;;;;3.99;60.15;96427.94;5114857;28;20122;-61
2021/04/05 00:28:33;;;;;;;0.73;0.73;;;;;;;3.94;60.10;96430.59;5114599;28;20035;-59
2021/04/05 00:31:00;;;;;;;0.40;0.40;;;;;;;3.90;60.28;96434.06;5114767;28;20031;-59
2021/04/05 00:33:27;;;;;;;0.30;0.30;;;;;;;3.88;60.26;96430.78;5114608;28;20063;-60
2021/04/05 00:35:53;;;;;;;0.60;0.60;;;;;;;3.86;60.41;96428.31;5114755;28;20028;-60
2021/04/05 00:38:19;;;;;;;2.53;1.75;;;;;;;3.84;60.15;96430.44;5114825;28;20028;-60
2021/04/05 00:40:49;;;;;;;0.73;0.73;;;;;;;3.78;60.61;96420.59;5115025;28;20059;-59
2021/04/05 00:43:17;;;;;;;0.32;0.32;;;;;;;3.75;60.42;96427.34;5114981;28;20401;-59
2021/04/05 00:45:44;;;;;;;0.68;0.68;;;;;;;3.74;60.63;96423.00;5114465;28;20027;-60
2021/04/05 00:48:12;;;;;;;0.20;0.20;;;;;;;3.72;60.51;96421.59;5114588;28;20034;-60
2021/04/05 00:50:46;;;;;;;0.65;0.52;;;;;;;3.68;60.55;96419.38;5114156;28;20036;-60
2021/04/05 00:53:14;;;;;;;0.40;0.40;;;;;;;3.62;60.67;96425.81;5114115;28;20035;-59
2021/04/05 00:55:42;;;;;;;0.20;0.20;;;;;;;3.58;60.61;96421.13;5114177;28;20426;-59
2021/04/05 00:58:09;;;;;;;0.20;0.20;;;;;;;3.56;60.68;96423.25;5113957;28;20043;-61
2021/04/05 01:00:39;;;;;;;0.20;0.20;;;;;;;3.51;60.91;96424.00;5113925;28;20040;-61
2021/04/05 01:03:06;;;;;;;0.30;0.30;;;;;;;3.46;60.90;96419.34;5113932;28;20031;-59
2021/04/05 01:05:32;;;;;;;0.20;0.20;;;;;;;3.35;61.12;96424.84;5114047;28;20038;-60
2021/04/05 01:07:59;;;;;;;0.20;0.20;;;;;;;3.19;61.44;96424.59;5114112;28;20032;-60
2021/04/05 01:10:25;;;;;;;0.20;0.20;;;;;;;3.07;61.60;96435.53;5113952;28;20032;-59
2021/04/05 01:12:51;;;;;;;0.20;0.20;;;;;;;2.96;61.75;96420.97;5113926;28;20039;-61
2021/04/05 01:15:18;;;;;;;0.20;0.20;;;;;;;2.92;61.91;96427.13;5113816;28;20096;-60
2021/04/05 01:17:46;;;;;;;0.22;0.22;;;;;;;2.86;61.99;96420.00;5113973;28;20031;-61
2021/04/05 01:20:13;;;;;;;0.20;0.20;;;;;;;2.86;61.97;96426.22;5095371;28;20079;-59
2021/04/05 01:22:43;;;;;;;0.20;0.20;;;;;;;2.91;61.90;96422.78;5095422;28;20404;-60
2021/04/05 01:25:12;;;;;;;0.32;0.32;;;;;;;2.92;61.65;96422.53;5113565;28;20035;-63
2021/04/05 01:27:38;;;;;;;0.20;0.20;;;;;;;2.94;61.65;96419.56;5095003;28;20031;-61
2021/04/05 01:30:36;;;;;;;0.40;0.40;;;;;;;2.95;61.47;96423.94;5112835;28;20493;-59
2021/04/05 01:33:05;;;;;;;0.20;0.20;;;;;;;3.01;61.49;96416.72;5112843;28;20501;-61
2021/04/05 01:35:55;;;;;;;0.20;0.20;;;;;;;3.07;61.28;96415.72;5113512;28;20040;-60
2021/04/05 01:38:41;;;;;;;0.43;0.43;;;;;;;3.12;61.30;96413.94;5095026;28;20062;-59
2021/04/05 01:41:13;;;;;;;0.40;0.40;;;;;;;3.15;61.13;96412.59;5113165;28;20547;-59
2021/04/05 01:43:40;;;;;;;0.20;0.20;;;;;;;3.19;61.19;96416.47;5113430;28;20028;-59
2021/04/05 01:46:08;;;;;;;0.90;0.55;;;;;;;3.21;61.13;96408.91;5113284;28;20036;-61
2021/04/05 01:48:33;;;;;;;0.20;0.20;;;;;;;3.27;61.15;96409.81;5113207;28;20030;-60
2021/04/05 01:51:01;;;;;;;0.20;0.20;;;;;;;3.30;60.89;96417.47;5113199;28;20408;-59
2021/04/05 01:53:27;;;;;;;0.25;0.25;;;;;;;3.31;60.93;96408.25;5107217;27;20539;-60
2021/04/05 01:55:53;;;;;;;0.20;0.20;;;;;;;3.30;61.04;96414.75;5125185;27;20080;-60
2021/04/05 01:58:21;;;;;;;0.30;0.30;;;;;;;3.24;61.27;96405.72;5111252;28;20130;-60
2021/04/05 02:00:49;;;;;;;0.22;0.22;;;;;;;3.23;61.32;96411.38;5093063;28;20024;-60
2021/04/05 02:03:15;;;;;;;0.20;0.20;;;;;;;3.21;61.18;96413.50;5111144;28;20023;-61
2021/04/05 02:05:55;;;;;;;0.20;0.20;;;;;;;3.23;61.46;96412.19;5110013;28;20064;-60
2021/04/05 02:08:26;;;;;;;0.50;0.50;;;;;;;3.25;61.32;96403.81;5110118;28;20028;-61
2021/04/05 02:10:53;;;;;;;0.20;0.20;;;;;;;3.27;61.36;96407.13;5108758;28;20039;-61
2021/04/05 02:13:21;;;;;;;0.20;0.20;;;;;;;3.30;61.14;96403.91;5111370;28;20051;-61
2021/04/05 02:15:48;;;;;;;0.40;0.40;;;;;;;3.36;61.05;96411.03;5076132;28;20055;-60
2021/04/05 02:18:14;;;;;;;0.20;0.20;;;;;;;3.41;61.07;96404.88;5111126;28;20023;-61
2021/04/05 02:20:42;;;;;;;0.20;0.20;;;;;;;3.44;60.94;96399.75;5109311;28;20366;-60
2021/04/05 02:23:08;;;;;;;0.40;0.40;;;;;;;3.49;60.79;96402.56;5110369;28;20028;-61
2021/04/05 02:25:35;;;;;;;0.65;0.65;;;;;;;3.57;60.84;96395.88;5110555;28;20448;-59
2021/04/05 02:28:04;;;;;;;0.20;0.20;;;;;;;3.60;60.74;96395.38;5111069;28;20046;-60
2021/04/05 02:30:31;;;;;;;0.88;0.50;;;;;;;3.59;60.89;96391.03;5112082;28;20039;-61
2021/04/05 02:33:04;;;;;;;0.20;0.20;;;;;;;3.67;60.79;96397.94;5112925;28;20500;-60
2021/04/05 02:35:33;;;;;;;0.20;0.20;;;;;;;3.71;60.68;96390.94;5094481;28;20039;-61
2021/04/05 02:38:01;;;;;;;0.20;0.20;;;;;;;3.77;60.74;96389.94;5112629;28;20051;-59
2021/04/05 02:40:27;;;;;;;0.20;0.20;;;;;;;3.82;60.49;96387.25;5113113;28;20081;-62
2021/04/05 02:42:55;;;;;;;0.40;0.40;;;;;;;3.88;60.47;96390.06;5098460;28;20032;-60
2021/04/05 02:45:23;;;;;;;0.30;0.30;;;;;;;3.93;60.72;96385.53;5117112;28;20341;-60
2021/04/05 02:47:53;;;;;;;0.20;0.20;;;;;;;3.95;60.66;96377.13;5116669;28;20035;-59
2021/04/05 02:50:21;;;;;;;1.55;0.75;;;;;;;3.93;60.76;96388.25;5116975;28;20042;-61
2021/04/05 02:52:48;;;;;;;0.20;0.20;;;;;;;3.94;60.57;96384.44;5116706;28;20046;-60
2021/04/05 02:55:15;;;;;;;0.38;0.38;;;;;;;3.95;60.62;96382.56;5116506;28;20404;-61
2021/04/05 02:57:43;;;;;;;0.20;0.20;;;;;;;4.03;60.64;96384.81;5116438;28;20382;-60
2021/04/05 03:00:15;;;;;;;0.20;0.20;;;;;;;4.02;60.68;96383.19;5116618;28;20032;-60
2021/04/05 03:02:42;;;;;;;0.10;0.10;;;;;;;3.95;60.91;96380.66;5116421;28;20054;-59
2021/04/05 03:05:10;;;;;;;0.20;0.20;;;;;;;3.94;60.87;96389.06;5097912;28;20020;-59
2021/04/05 03:07:37;;;;;;;0.20;0.20;;;;;;;3.94;61.04;96387.16;5116549;28;20404;-60
2021/04/05 03:10:11;;;;;;;0.20;0.20;;;;;;;3.94;60.98;96386.34;5116346;28;20031;-61
2021/04/05 03:12:38;;;;;;;;;;;;;;;3.96;61.10;96390.44;5116498;28;20063;-60
2021/04/05 03:15:08;;;;;;;0.20;0.20;;;;;;;3.96;60.90;96381.47;5116844;28;19916;-61
2021/04/05 03:17:35;;;;;;;0.20;0.20;;;;;;;3.91;60.97;96375.97;5081517;28;20370;-61
2021/04/05 03:20:11;;;;;;;0.20;0.20;;;;;;;3.88;61.08;96390.06;5098476;28;20031;-61
2021/04/05 03:22:39;;;;;;;0.30;0.30;;;;;;;3.83;61.03;96391.63;5080833;28;20464;-61
2021/04/05 03:25:07;;;;;;;0.43;0.43;;;;;;;3.81;61.09;96385.66;5115830;28;20044;-60
2021/04/05 03:27:32;;;;;;;0.20;0.20;;;;;;;3.81;61.32;96384.81;5098174;28;20050;-61
2021/04/05 03:30:00;;;;;;;0.47;0.45;;;;;;;3.84;61.18;96379.72;5115982;28;20517;-61
2021/04/05 03:32:29;;;;;;;0.85;0.85;;;;;;;3.90;60.91;96379.75;5116257;28;20038;-60
2021/04/05 03:34:57;;;;;;;0.20;0.20;;;;;;;3.96;60.84;96374.16;5115722;28;20035;-61
2021/04/05 03:37:26;;;;;;;0.20;0.20;;;;;;;4.00;60.84;96375.28;5116117;28;20034;-60
2021/04/05 03:39:52;;;;;;;0.20;0.20;;;;;;;3.99;60.90;96380.97;5115841;28;20439;-60
2021/04/05 03:42:30;;;;;;;0.32;0.32;;;;;;;3.95;60.96;96374.41;5115976;28;20031;-60
2021/04/05 03:45:11;;;;;;;1.25;1.17;;;;;;;3.89;61.10;96378.94;5115535;28;20122;-60
2021/04/05 03:47:58;;;;;;;0.20;0.20;;;;;;;3.84;61.15;96377.00;5116129;28;20042;-60
2021/04/05 03:50:43;;;;;;;0.22;0.22;;;;;;;3.82;61.23;96372.88;5116071;28;20062;-60
2021/04/05 03:53:40;;;;;;;0.20;0.20;;;;;;;3.81;61.25;96380.22;5115138;28;20373;-61
2021/04/05 03:56:16;;;;;;;0.30;0.30;;;;;;;3.81;61.30;96373.94;5032911;28;20132;-60
2021/04/05 03:58:54;;;;;;;0.30;0.30;;;;;;;3.88;61.10;96382.72;5032740;28;20457;-59
2021/04/05 04:01:27;;;;;;;0.82;0.80;;;;;;;3.96;60.82;96374.16;5032587;28;20045;-60
2021/04/05 04:04:01;;;;;;;0.20;0.20;;;;;;;4.07;60.78;96379.72;5032529;28;20053;-59
2021/04/05 04:06:41;;;;;;;0.20;0.20;;;;;;;4.16;60.49;96373.56;5032509;28;20412;-60
2021/04/05 04:09:08;;;;;;;0.20;0.20;;;;;;;4.30;60.51;96371.28;5032406;28;20103;-60
2021/04/05 04:11:36;;;;;;;0.30;0.30;;;;;;;4.48;60.09;96381.00;5032298;28;20028;-61
2021/04/05 04:14:05;;;;;;;0.20;0.20;;;;;;;4.52;60.12;96368.53;5032545;28;20044;-60
2021/04/05 04:16:32;;;;;;;0.20;0.20;;;;;;;4.62;60.11;96369.72;5032355;28;20053;-60
2021/04/05 04:19:03;;;;;;;0.22;0.22;;;;;;;4.75;59.98;96377.44;5032335;28;20029;-60
2021/04/05 04:21:30;;;;;;;0.30;0.30;;;;;;;4.87;59.78;96372.69;5032197;28;20025;-60
2021/04/05 04:23:57;;;;;;;0.35;0.35;;;;;;;4.95;59.61;96371.38;5032219;28;20036;-59
2021/04/05 04:26:25;;;;;;;0.20;0.20;;;;;;;4.98;59.54;96372.78;5032129;28;20050;-59
2021/04/05 04:28:50;;;;;;;0.20;0.20;;;;;;;4.99;59.67;96374.38;5031990;28;20129;-61
2021/04/05 04:31:20;;;;;;;0.20;0.20;;;;;;;4.98;59.81;96372.78;5032583;28;20036;-60
2021/04/05 04:33:49;;;;;;;0.20;0.20;;;;;;;5.01;59.91;96372.25;5097075;28;20075;-60
2021/04/05 04:36:26;;;;;;;0.20;0.20;;;;;;;5.08;59.86;96376.38;5095937;28;20031;-60
2021/04/05 04:38:56;;;;;;;0.20;0.20;;;;;;;5.09;59.78;96380.75;5114419;28;20058;-61
2021/04/05 04:41:24;;;;;;;0.10;0.10;;;;;;;5.07;59.89;96384.81;5114661;28;20024;-61
2021/04/05 04:44:02;;;;;;;0.95;0.95;;;;;;;5.06;60.07;96385.88;5114658;28;20086;-59
2021/04/05 04:46:29;;;;;;;0.25;0.25;;;;;;;5.03;59.98;96379.03;5096615;28;20492;-59
2021/04/05 04:49:00;;;;;;;0.20;0.20;;;;;;;5.01;60.11;96380.41;5095948;28;20516;-60
2021/04/05 04:51:27;;;;;;;2.55;0.55;;;;;;;4.98;60.46;96383.66;5114226;28;20072;-59
2021/04/05 04:53:54;;;;;;;0.20;0.20;;;;;;;4.98;60.30;96380.94;5114693;28;20548;-61
2021/04/05 04:56:21;;;;;;;1.27;0.40;;;;;;;4.96;60.28;96377.63;5114189;28;20111;-59
2021/04/05 04:58:47;;;;;;;0.20;0.20;;;;;;;4.93;60.24;96380.88;5092349;28;20581;-60
2021/04/05 05:01:13;;;;;;;0.85;0.85;;;;;;;4.90;60.37;96376.75;5093649;28;20497;-60
2021/04/05 05:03:44;;;;;;;0.30;0.30;;;;;;;4.87;60.27;96382.72;5094073;28;20028;-59
2021/04/05 05:06:12;;;;;;;0.20;0.20;;;;;;;4.93;60.28;96383.59;5093395;28;20414;-59
2021/04/05 05:08:39;;;;;;;0.20;0.20;;;;;;;5.01;60.11;96388.56;5093335;28;20085;-58
2021/04/05 05:11:06;;;;;;;0.20;0.20;;;;;;;5.00;60.03;96384.19;5094026;28;20032;-59
2021/04/05 05:13:32;;;;;;;0.20;0.20;;;;;;;4.95;60.16;96390.41;5075058;28;20131;-59
2021/04/05 05:15:58;;;;;;;0.20;0.20;;;;;;;4.90;60.21;96388.47;5093846;28;20069;-61
2021/04/05 05:18:25;;;;;;;0.20;0.20;;;;;;;4.90;60.45;96382.19;5093268;28;20447;-60
2021/04/05 05:20:52;;;;;;;0.20;0.20;;;;;;;4.81;60.47;96395.44;5093528;28;20035;-60
2021/04/05 05:23:18;;;;;;;0.20;0.20;;;;;;;4.69;60.76;96395.59;5091876;28;20082;-60
2021/04/05 05:25:46;;;;;;;0.75;0.45;;;;;;;4.54;61.03;96395.47;5093726;28;20077;-60
2021/04/05 05:28:16;;;;;;;0.20;0.20;;;;;;;4.42;61.26;96390.16;5093099;28;20036;-59
2021/04/05 05:30:41;;;;;;;0.20;0.20;;;;;;;4.32;61.45;96401.72;5092118;28;20036;-59
2021/04/05 05:33:09;;;;;;;0.20;0.20;;;;;;;4.21;61.43;96394.53;5093534;28;20085;-60
2021/04/05 05:35:36;;;;;;;0.20;0.20;;;;;;;4.16;61.71;96400.72;5093158;28;20378;-60
2021/04/05 05:38:06;;;;;;;0.20;0.20;;;;;;;4.06;61.64;96406.03;5093523;28;20481;-60
2021/04/05 05:40:34;;;;;;;0.20;0.20;;;;;;;3.97;61.69;96407.53;5092597;28;20035;-59
2021/04/05 05:43:11;;;;;;;0.20;0.20;;;;;;;3.99;61.86;96405.38;5093026;28;20109;-60
2021/04/05 05:46:03;;;;;;;0.20;0.20;;;;;;;3.99;61.52;96403.50;5092836;28;20074;-61
2021/04/05 05:48:44;;;;;;;0.30;0.30;;;;;;;3.95;61.54;96405.09;5051230;28;20048;-60
2021/04/05 05:51:35;;;;;;;0.20;0.20;;;;;;;3.92;61.61;96399.34;5051302;28;20068;-61
2021/04/05 05:54:39;;;;;;;0.20;0.20;;;;;;;3.88;61.80;96407.16;5050662;28;20055;-60
2021/04/05 05:57:24;;;;;;;0.20;0.20;;;;;;;3.92;61.53;96400.16;4991817;28;20116;-59
2021/04/05 05:59:58;;;;;;;0.20;0.20;;;;;;;3.93;61.28;96404.53;4991830;28;20054;-60
2021/04/05 06:02:38;;;;;;;0.20;0.20;;;;;;;3.88;61.42;96404.44;4991330;28;20040;-59
2021/04/05 06:05:31;;;;;;;0.30;0.30;;;;;;;3.90;61.55;96406.91;4991413;28;20086;-61
2021/04/05 06:08:34;;;;;;;0.30;0.30;;;;;;;3.88;61.45;96411.78;4991255;28;20133;-59
2021/04/05 06:11:24;;;;;;;0.30;0.30;;;;;;;3.81;61.57;96409.22;4991014;28;20408;-59
2021/04/05 06:14:06;;;;;;;1.02;0.77;;;;;;;3.77;61.63;96417.06;4990959;28;20057;-60
2021/04/05 06:16:49;;;;;;;0.20;0.20;;;;;;;3.75;61.58;96408.34;4974309;28;20562;-61
2021/04/05 06:19:27;;;;;;;0.20;0.20;;;;;;;3.76;61.41;96425.47;4991104;28;20046;-61
2021/04/05 06:21:58;;;;;;;0.25;0.25;;;;;;;3.72;61.77;96427.84;4975695;28;20129;-60
2021/04/05 06:24:54;;;;;;;0.22;0.22;;;;;;;3.70;61.77;96429.19;4994399;28;20035;-59
2021/04/05 06:27:46;;;;;;;0.20;0.20;;;;;;;3.78;61.68;96417.88;5050360;28;20053;-61
2021/04/05 06:30:25;;;;;;;0.20;0.20;;;;;;;3.80;61.51;96423.91;5050903;28;20621;-59
2021/04/05 06:33:01;;;;;;;0.20;0.20;;;;;;;3.84;61.70;96425.03;5053197;28;20041;-60
2021/04/05 06:35:59;;;;;;;0.20;0.20;;;;;;;4.03;61.14;96423.66;5092645;28;20035;-60
2021/04/05 06:38:30;;;;;;;0.20;0.20;;;;;;;4.14;60.92;96408.31;5050455;28;20132;-62
2021/04/05 06:41:01;;;;;;;0.30;0.30;;;;;;;4.25;60.87;96408.44;5050613;28;20068;-63
2021/04/05 06:43:38;;;;;;;0.55;0.55;;;;;;;4.34;60.76;96415.91;5034541;28;20051;-60
2021/04/05 06:46:42;;;;;;;0.20;0.20;;;;;;;4.34;60.73;96425.94;5033354;28;20410;-63
2021/04/05 06:49:26;;;;;;;0.30;0.30;;;;;;;4.26;61.24;96423.66;5050559;28;20052;-61
2021/04/05 06:52:16;;;;;;;0.20;0.20;;;;;;;4.23;61.31;96421.47;5049814;28;20025;-61
2021/04/05 06:55:03;;;;;;;0.20;0.20;;;;;;;4.23;61.48;96429.63;5049911;28;20045;-61
2021/04/05 06:57:35;;;;;;;0.20;0.20;;;;;;;4.18;61.63;96428.47;5050093;28;20137;-60
2021/04/05 07:00:12;;;;;;;0.20;0.20;;;;;;;4.18;61.74;96428.47;5049628;28;20033;-60
2021/04/05 07:02:56;;;;;;;0.20;0.20;;;;;;;4.12;61.91;96428.66;5049967;28;20146;-62
2021/04/05 07:06:03;;;;;;;0.20;0.20;;;;;;;4.10;62.11;96430.81;5049793;28;20036;-61
2021/04/05 07:08:35;;;;;;;0.73;0.73;;;;;;;4.19;62.01;96442.88;4971518;28;20054;-60
2021/04/05 07:11:25;;;;;;;0.20;0.20;;;;;;;4.17;61.93;96439.59;4971438;28;20051;-62
2021/04/05 07:14:29;;;;;;;0.20;0.20;;;;;;;4.03;62.40;96439.13;4984206;28;20570;-63
2021/04/05 07:17:14;;;;;;;0.20;0.20;;;;;;;3.89;62.64;96443.25;4987549;28;20050;-64
2021/04/05 07:19:51;;;;;;;4.13;0.63;;;;;;;3.81;62.83;96448.06;4968812;28;20050;-60
2021/04/05 07:22:35;;;;;;;0.20;0.20;;;;;;;3.75;63.11;96451.75;4985602;28;20492;-61
2021/04/05 07:25:21;;;;;;;0.20;0.20;;;;;;;3.65;63.34;96457.03;5006249;28;20038;-61
2021/04/05 07:28:02;;;;;;;0.20;0.20;;;;;;;3.53;63.47;96448.19;4983752;28;20046;-61
2021/04/05 07:30:53;;;;;;;0.85;0.85;;;;;;;3.43;63.82;96462.41;4974085;28;20042;-62
2021/04/05 07:33:37;;;;;;;0.20;0.20;;;;;;;3.30;64.05;96458.16;4976597;28;20047;-61
2021/04/05 07:36:27;;;;;;;0.20;0.20;;;;;;;3.21;64.13;96465.88;4974067;28;20131;-62
2021/04/05 07:39:21;;;;;;;0.20;0.20;;;;;;;3.30;64.16;96458.16;4973934;28;20078;-61
2021/04/05 07:41:58;;;;;;;0.20;0.20;;;;;;;3.31;63.86;96471.47;4973991;28;20051;-61
2021/04/05 07:45:10;;;;;;;0.20;0.20;;;;;;;3.23;63.96;96476.47;5011642;28;20069;-63
2021/04/05 07:47:35;;;;;;;0.30;0.30;;;;;;;3.23;63.91;96480.00;5012411;28;20057;-61
2021/04/05 07:50:25;;;;;;;0.15;0.15;;;;;;;3.22;63.93;96483.75;5012831;28;20051;-63
2021/04/05 07:53:07;;;;;;;1.35;0.55;;;;;;;3.17;64.11;96478.25;5012939;28;20050;-64
2021/04/05 07:55:33;;;;;;;0.20;0.20;;;;;;;3.13;64.24;96485.25;5052470;28;20040;-63
2021/04/05 07:58:02;;;;;;;0.20;0.20;;;;;;;3.11;64.12;96493.63;5058377;28;20114;-62
2021/04/05 08:00:46;;;;;;;0.20;0.20;;;;;;;3.09;64.26;96489.50;5072619;28;20043;-62
2021/04/05 08:03:53;;;;;;;0.20;0.20;;;;;;;3.12;63.92;96492.56;5072497;28;20419;-61
2021/04/05 08:06:23;;;;;;;0.20;0.20;;;;;;;3.12;63.99;96500.69;5072283;28;20045;-62
2021/04/05 08:09:01;;;;;;;0.52;0.52;;;;;;;3.05;64.22;96493.75;5055743;28;20028;-64
2021/04/05 08:12:01;;;;;;;0.20;0.20;;;;;;;3.02;64.28;96505.94;5071813;28;20076;-62
2021/04/05 08:14:45;;;;;;;0.20;0.20;;;;;;;2.92;64.54;96509.28;5032220;28;20029;-63
2021/04/05 08:17:34;;;;;;;0.20;0.20;;;;;;;2.89;64.80;96515.19;5015581;28;20045;-62
2021/04/05 08:20:23;;;;;;;0.20;0.20;;;;;;;2.89;64.72;96517.06;5032292;28;20124;-63
2021/04/05 08:23:06;;;;;;;0.20;0.20;;;;;;;2.90;64.62;96521.41;5031973;28;20043;-63
2021/04/05 08:28:48;;;;;;;2.13;0.63;;;;;;;2.89;64.59;96530.63;5073162;28;20547;-62
2021/04/05 08:31:46;;;;;;;0.85;0.85;;;;;;;2.83;64.60;96527.00;5092631;28;20070;-62
2021/04/05 08:34:16;;;;;;;0.88;0.88;;;;;;;2.84;64.46;96544.06;5094102;28;20051;-62
2021/04/05 08:36:58;;;;;;;0.20;0.20;;;;;;;2.80;64.87;96549.97;5094051;28;20035;-62
2021/04/05 08:40:03;;;;;;;0.22;0.22;;;;;;;2.85;64.67;96549.25;5075017;28;20052;-63
2021/04/05 08:42:52;;;;;;;0.20;0.20;;;;;;;2.84;64.57;96541.34;5061567;28;20127;-61
2021/04/05 08:45:22;;;;;;;0.20;0.20;;;;;;;2.79;64.49;96553.75;5096053;28;20070;-63
2021/04/05 08:48:02;;;;;;;0.22;0.22;;;;;;;2.85;64.48;96554.66;5097204;28;20020;-65
2021/04/05 08:50:31;;;;;;;0.20;0.20;;;;;;;2.79;64.83;96559.16;5093684;28;20455;-62
2021/04/05 08:52:58;;;;;;;0.60;0.60;;;;;;;2.80;64.83;96568.13;5093702;28;20031;-63
2021/04/05 08:55:28;;;;;;;0.22;0.22;;;;;;;2.79;64.96;96583.56;5091193;28;20028;-63
2021/04/05 08:58:00;;;;;;;0.20;0.20;;;;;;;2.85;64.99;96572.81;5104559;27;20058;-61
2021/04/05 09:00:27;;;;;;;1.10;1.00;;;;;;;2.93;64.79;96567.84;5134238;27;20039;-63
2021/04/05 09:02:56;;;;;;;0.20;0.20;;;;;;;3.04;64.45;96573.47;5134431;27;20034;-64
2021/04/05 09:05:28;;;;;;;0.50;0.50;;;;;;;3.15;64.22;96576.13;5134121;27;20062;-61
2021/04/05 09:08:09;;;;;;;0.20;0.20;;;;;;;3.15;64.21;96570.72;5134232;27;20058;-63
2021/04/05 09:11:00;;;;;;;0.20;0.20;;;;;;;3.10;64.27;96578.72;5133843;27;20089;-63
2021/04/05 09:13:35;;;;;;;0.35;0.35;;;;;;;3.18;64.37;96587.56;5121412;27;20054;-63
2021/04/05 09:16:25;;;;;;;0.20;0.20;;;;;;;3.27;64.20;96583.41;5113223;28;20038;-62
2021/04/05 09:19:09;;;;;;;0.43;0.43;;;;;;;3.33;64.24;96598.69;5113224;28;20050;-61
2021/04/05 09:21:43;;;;;;;0.20;0.20;;;;;;;3.39;63.98;96602.34;5113099;28;20042;-63
2021/04/05 09:24:37;;;;;;;0.20;0.20;;;;;;;3.35;64.21;96595.75;5113107;28;20093;-61
2021/04/05 09:27:28;;;;;;;0.20;0.20;;;;;;;3.39;64.31;96595.00;5113346;27;20031;-60
2021/04/05 09:30:29;;;;;;;0.20;0.20;;;;;;;3.37;64.25;96588.97;5133633;27;20072;-62
2021/04/05 09:33:31;;;;;;;0.30;0.30;;;;;;;3.40;64.38;96609.38;5133579;27;20043;-64
2021/04/05 09:36:21;;;;;;;0.20;0.20;;;;;;;3.45;64.13;96607.59;5133862;27;20157;-64
2021/04/05 09:39:03;;;;;;;0.20;0.20;;;;;;;3.40;64.42;96618.38;5133508;27;20049;-62
2021/04/05 09:41:46;;;;;;;0.20;0.20;;;;;;;3.42;64.46;96624.38;5133138;27;20381;-63
2021/04/05 09:44:54;;;;;;;0.30;0.30;;;;;;;3.49;64.47;96614.19;5132722;27;20039;-61
2021/04/05 09:47:41;;;;;;;0.20;0.20;;;;;;;3.50;64.37;96613.13;5132951;27;20035;-61
2021/04/05 09:50:11;;;;;;;0.20;0.20;;;;;;;3.54;64.28;96626.22;5110207;27;20127;-62
2021/04/05 09:52:58;;;;;;;0.20;0.20;;;;;;;3.60;64.34;96633.38;5091166;28;20031;-62
2021/04/05 09:55:37;;;;;;;0.20;0.20;;;;;;;3.66;64.08;96651.38;5094579;28;20043;-62
2021/04/05 09:58:17;;;;;;;0.30;0.30;;;;;;;3.61;64.38;96657.53;5121155;27;20054;-64
2021/04/05 10:00:57;;;;;;;0.85;0.85;;;;;;;3.61;64.61;96652.13;5133401;27;20504;-61
2021/04/05 10:03:25;;;;;;;1.80;1.65;;;;;;;3.67;64.48;96655.75;5132734;27;20038;-60
2021/04/05 10:05:52;;;;;;;1.85;1.35;;;;;;;3.85;64.25;96649.28;5133347;27;20456;-62
2021/04/05 10:08:30;;;;;;;1.02;1.02;;;;;;;3.90;64.08;96667.53;5114423;28;20453;-62
2021/04/05 10:10:57;;;;;;;0.30;0.30;;;;;;;3.90;64.24;96662.13;5136294;27;20055;-61
2021/04/05 10:13:26;;;;;;;0.57;0.57;;;;;;;3.91;64.33;96682.78;5138757;27;20035;-60
2021/04/05 10:15:55;;;;;;;0.30;0.30;;;;;;;3.96;64.37;96674.69;5133057;28;20031;-62
2021/04/05 10:18:22;;;;;;;0.20;0.20;;;;;;;3.95;64.49;96683.94;5133068;28;20054;-61
2021/04/05 10:20:51;;;;;;;0.40;0.40;;;;;;;3.94;64.31;96693.16;5132743;28;20087;-60
2021/04/05 10:23:30;;;;;;;0.20;0.20;;;;;;;3.91;64.60;96696.34;5132750;28;20027;-62
2021/04/05 10:26:00;;;;;;;0.40;0.40;;;;;;;3.94;64.69;96685.00;5114462;28;20072;-60
2021/04/05 10:28:37;;;;;;;1.13;0.98;;;;;;;4.10;64.27;96696.94;5116271;28;20035;-61
2021/04/05 10:31:09;;;;;;;0.20;0.20;;;;;;;4.32;63.75;96692.44;5111435;28;20063;-61
2021/04/05 10:33:43;;;;;;;0.20;0.20;;;;;;;4.47;63.39;96694.56;5108690;28;20032;-60
2021/04/05 10:36:11;;;;;;;0.20;0.20;;;;;;;4.46;63.45;96697.53;5110838;28;20107;-61
2021/04/05 10:38:38;;;;;;;0.30;0.30;;;;;;;4.63;63.27;96683.94;5110892;28;20058;-60
2021/04/05 10:41:09;;;;;;;0.20;0.20;;;;;;;4.74;63.18;96710.19;5110686;28;20055;-60
2021/04/05 10:44:09;;;;;;;0.30;0.30;;;;;;;4.76;63.31;96713.50;5109500;28;20551;-61
2021/04/05 10:46:41;;;;;;;1.00;1.00;;;;;;;4.76;63.33;96712.69;5092442;28;20028;-60
2021/04/05 10:49:10;;;;;;;0.80;0.65;;;;;;;4.72;63.53;96717.78;5110734;28;20470;-64
2021/04/05 10:51:45;;;;;;;0.75;0.75;;;;;;;4.72;63.73;96720.50;5110559;28;20031;-61
2021/04/05 10:54:24;;;;;;;;;;;;;;;4.70;63.83;96712.59;5111190;28;20031;-63
2021/04/05 10:56:55;;;;;;;0.43;0.43;;;;;;;4.68;63.76;96733.78;5110710;28;19966;-60
2021/04/05 10:59:43;;;;;;;0.20;0.20;;;;;;;4.66;63.83;96738.63;5111404;28;20052;-61
2021/04/05 11:02:18;;;;;;;0.15;0.15;;;;;;;4.66;64.11;96735.91;5112367;28;20382;-61
2021/04/05 11:04:51;;;;;;;0.20;0.20;;;;;;;4.63;64.16;96743.75;5114678;28;20054;-61
2021/04/05 11:07:19;;;;;;;0.20;0.20;;;;;;;4.59;64.49;96761.59;5112461;28;20031;-61
2021/04/05 11:09:46;;;;;;;0.20;0.20;;;;;;;4.50;64.57;96759.28;5114467;28;20020;-61
2021/04/05 11:12:13;;;;;;;0.57;0.57;;;;;;;4.41;64.96;96766.22;5115145;27;20441;-61
2021/04/05 11:14:41;;;;;;;0.10;0.10;;;;;;;4.27;65.33;96765.72;5114275;28;20015;-59
2021/04/05 11:17:09;;;;;;;0.20;0.20;;;;;;;4.21;65.41;96772.94;5114163;28;20027;-61
2021/04/05 11:19:48;;;;;;;0.47;0.47;;;;;;;4.22;65.35;96779.19;5114193;28;20039;-60
2021/04/05 11:22:18;;;;;;;0.17;0.17;;;;;;;4.32;65.24;96787.53;5111157;28;20031;-59
2021/04/05 11:24:50;;;;;;;0.20;0.20;;;;;;;4.33;65.17;96785.66;5114787;28;20058;-59
2021/04/05 11:27:21;;;;;;;0.10;0.10;;;;;;;4.26;65.11;96791.22;5112853;27;20110;-61
2021/04/05 11:29:49;;;;;;;0.17;0.17;;;;;;;4.04;65.71;96799.22;5113899;28;20378;-61
2021/04/05 11:32:18;;;;;;;0.20;0.20;;;;;;;3.82;66.08;96797.19;5111156;28;20101;-60
2021/04/05 11:34:49;;;;;;;0.20;0.20;;;;;;;3.68;66.53;96801.22;5114055;28;20023;-61
2021/04/05 11:37:17;;;;;;;0.28;0.28;;;;;;;3.55;66.88;96807.75;5111378;28;20043;-63
2021/04/05 11:39:47;;;;;;;0.20;0.20;;;;;;;3.51;66.73;96810.13;5095835;28;20028;-61
2021/04/05 11:42:15;;;;;;;0.20;0.20;;;;;;;3.57;66.81;96808.34;5096593;27;20126;-61
2021/04/05 11:44:48;;;;;;;0.20;0.20;;;;;;;3.62;66.25;96813.03;5113850;28;20489;-60
2021/04/05 11:47:18;;;;;;;0.20;0.20;;;;;;;3.64;66.31;96811.75;5110136;28;20632;-61
2021/04/05 11:49:44;;;;;;;0.20;0.20;;;;;;;3.67;66.28;96816.69;5095320;28;20027;-61
2021/04/05 11:52:19;;;;;;;0.20;0.20;;;;;;;3.70;66.04;96828.16;5113290;28;20508;-60
2021/04/05 11:55:06;;;;;;;0.20;0.20;;;;;;;3.67;66.10;96826.75;5113544;28;20031;-61
2021/04/05 11:57:41;;;;;;;0.30;0.30;;;;;;;3.58;65.96;96830.88;5114281;27;20024;-60
2021/04/05 12:00:11;;;;;;;0.20;0.20;;;;;;;3.59;65.99;96832.53;5095903;28;20054;-63
2021/04/05 12:03:02;;;;;;;0.20;0.20;;;;;;;3.60;65.83;96839.63;5110930;28;20469;-62
2021/04/05 12:05:37;;;;;;;0.20;0.20;;;;;;;3.59;65.85;96830.66;5112619;28;20055;-62
2021/04/05 12:08:14;;;;;;;0.20;0.20;;;;;;;3.64;65.67;96840.78;5112001;28;20027;-59
2021/04/05 12:10:43;;;;;;;0.20;0.20;;;;;;;3.75;65.46;96848.06;5111282;28;20504;-61
2021/04/05 12:13:15;;;;;;;0.20;0.20;;;;;;;3.83;65.08;96853.13;5113210;27;20585;-61
2021/04/05 12:15:43;;;;;;;0.20;0.20;;;;;;;3.86;65.04;96852.66;5112096;28;20109;-62
2021/04/05 12:18:09;;;;;;;0.10;0.10;;;;;;;3.88;65.00;96846.16;5094618;28;20393;-64
2021/04/05 12:20:36;;;;;;;0.20;0.20;;;;;;;3.87;65.23;96853.47;5112631;28;20407;-60